createdAt,value
2022-10-10T00:00:20.625Z,1015.96
2022-10-10T00:01:19.979Z,1015.91
2022-10-10T00:02:22.226Z,1015.97
2022-10-10T00:03:22.381Z,1015.91
2022-10-10T00:04:22.578Z,1015.92
2022-10-10T00:05:22.759Z,1015.90
2022-10-10T00:06:23.446Z,1015.83
2022-10-10T00:07:23.709Z,1015.89
2022-10-10T00:08:23.966Z,1015.89
2022-10-10T00:09:24.177Z,1015.78
2022-10-10T00:10:24.339Z,1015.81
2022-10-10T00:11:24.529Z,1015.84
2022-10-10T00:12:26.673Z,1015.77
2022-10-10T00:13:25.402Z,1015.73
2022-10-10T00:14:23.892Z,1015.75
2022-10-10T00:15:26.082Z,1015.66
2022-10-10T00:16:24.456Z,1015.67
2022-10-10T00:17:26.627Z,1015.67
2022-10-10T00:18:24.993Z,1015.66
2022-10-10T00:19:27.177Z,1015.61
2022-10-10T00:20:25.603Z,1015.60
2022-10-10T00:21:25.887Z,1015.63
2022-10-10T00:22:26.178Z,1015.62
2022-10-10T00:23:28.348Z,1015.63
2022-10-10T00:24:28.540Z,1015.60
2022-10-10T00:25:27.028Z,1015.53
2022-10-10T00:26:29.233Z,1015.64
2022-10-10T00:27:28.549Z,1015.55
2022-10-10T00:28:29.943Z,1015.51
2022-10-10T00:29:28.158Z,1015.55
2022-10-10T00:30:28.469Z,1015.51
2022-10-10T00:31:28.767Z,1015.48
2022-10-10T00:32:32.408Z,1015.49
2022-10-10T00:33:31.135Z,1015.52
2022-10-10T00:34:29.624Z,1015.47
2022-10-10T00:35:31.789Z,1015.48
2022-10-10T00:36:30.161Z,1015.42
2022-10-10T00:37:30.475Z,1015.45
2022-10-10T00:38:32.652Z,1015.43
2022-10-10T00:39:32.811Z,1015.40
2022-10-10T00:40:31.303Z,1015.42
2022-10-10T00:41:33.464Z,1015.46
2022-10-10T00:42:32.742Z,1015.37
2022-10-10T00:43:32.099Z,1015.35
2022-10-10T00:44:34.280Z,1015.30
2022-10-10T00:45:34.467Z,1015.29
2022-10-10T00:46:32.958Z,1015.30
2022-10-10T00:47:34.054Z,1015.24
2022-10-10T00:48:33.525Z,1015.22
2022-10-10T00:49:35.725Z,1015.23
2022-10-10T00:50:35.901Z,1015.23
2022-10-10T00:51:34.393Z,1015.17
2022-10-10T00:52:34.685Z,1015.18
2022-10-10T00:53:34.972Z,1015.15
2022-10-10T00:54:37.153Z,1015.17
2022-10-10T00:55:35.515Z,1015.17
2022-10-10T00:56:35.789Z,1015.07
2022-10-10T00:57:36.103Z,1015.05
2022-10-10T00:58:36.397Z,1015.06
2022-10-10T00:59:36.683Z,1015.02
2022-10-10T01:00:37.935Z,1015.01
2022-10-10T01:01:37.253Z,1014.97
2022-10-10T01:02:37.537Z,1014.98
2022-10-10T01:03:39.715Z,1014.97
2022-10-10T01:04:44.475Z,1014.96
2022-10-10T01:05:40.260Z,1014.93
2022-10-10T01:06:38.746Z,1014.92
2022-10-10T01:07:41.648Z,1014.95
2022-10-10T01:08:39.278Z,1014.96
2022-10-10T01:09:41.453Z,1014.96
2022-10-10T01:10:39.831Z,1014.98
2022-10-10T01:11:40.104Z,1014.97
2022-10-10T01:12:42.284Z,1015.01
2022-10-10T01:13:40.660Z,1014.97
2022-10-10T01:14:40.937Z,1014.98
2022-10-10T01:15:43.123Z,1014.98
2022-10-10T01:16:41.479Z,1014.98
2022-10-10T01:17:41.794Z,1014.97
2022-10-10T01:18:45.410Z,1014.95
2022-10-10T01:19:42.417Z,1014.95
2022-10-10T01:20:42.697Z,1014.99
2022-10-10T01:21:43.845Z,1014.95
2022-10-10T01:22:43.324Z,1014.98
2022-10-10T01:23:45.337Z,1014.97
2022-10-10T01:24:45.515Z,1014.86
2022-10-10T01:25:45.207Z,1014.87
2022-10-10T01:26:45.420Z,1014.84
2022-10-10T01:27:46.875Z,1014.84
2022-10-10T01:28:45.990Z,1014.76
2022-10-10T01:29:45.457Z,1014.74
2022-10-10T01:30:47.653Z,1014.69
2022-10-10T01:31:46.008Z,1014.70
2022-10-10T01:32:48.466Z,1014.65
2022-10-10T01:33:47.485Z,1014.65
2022-10-10T01:34:47.721Z,1014.58
2022-10-10T01:35:49.067Z,1014.60
2022-10-10T01:36:48.279Z,1014.58
2022-10-10T01:37:47.621Z,1014.61
2022-10-10T01:38:49.771Z,1014.56
2022-10-10T01:39:49.029Z,1014.51
2022-10-10T01:40:50.371Z,1014.50
2022-10-10T01:41:50.550Z,1014.52
2022-10-10T01:42:51.062Z,1014.50
2022-10-10T01:43:50.882Z,1014.48
2022-10-10T01:44:49.488Z,1014.43
2022-10-10T01:45:49.762Z,1014.45
2022-10-10T01:46:50.043Z,1014.46
2022-10-10T01:47:52.362Z,1014.43
2022-10-10T01:48:52.427Z,1014.43
2022-10-10T01:49:52.617Z,1014.38
2022-10-10T01:50:52.760Z,1014.40
2022-10-10T01:51:53.462Z,1014.35
2022-10-10T01:52:52.147Z,1014.38
2022-10-10T01:53:53.996Z,1014.36
2022-10-10T01:54:54.171Z,1014.33
2022-10-10T01:55:53.609Z,1014.31
2022-10-10T01:56:52.946Z,1014.35
2022-10-10T01:57:53.236Z,1014.24
2022-10-10T01:58:54.416Z,1014.27
2022-10-10T01:59:55.608Z,1014.28
2022-10-10T02:00:55.811Z,1014.27
2022-10-10T02:01:56.439Z,1014.27
2022-10-10T02:02:56.620Z,1014.25
2022-10-10T02:03:56.802Z,1014.26
2022-10-10T02:04:56.985Z,1014.23
2022-10-10T02:05:57.145Z,1014.33
2022-10-10T02:06:57.822Z,1014.30
2022-10-10T02:07:56.223Z,1014.28
2022-10-10T02:08:58.397Z,1014.24
2022-10-10T02:09:58.578Z,1014.25
2022-10-10T02:10:58.754Z,1014.26
2022-10-10T02:11:58.946Z,1014.27
2022-10-10T02:12:59.622Z,1014.24
2022-10-10T02:13:58.009Z,1014.23
2022-10-10T02:15:00.220Z,1014.25
2022-10-10T02:15:58.532Z,1014.20
2022-10-10T02:17:00.691Z,1014.21
2022-10-10T02:18:00.849Z,1014.20
2022-10-10T02:18:59.334Z,1014.17
2022-10-10T02:20:01.503Z,1014.18
2022-10-10T02:20:59.862Z,1014.15
2022-10-10T02:22:00.148Z,1014.20
2022-10-10T02:23:03.805Z,1014.16
2022-10-10T02:24:00.695Z,1014.14
2022-10-10T02:25:02.884Z,1014.13
2022-10-10T02:26:01.356Z,1014.13
2022-10-10T02:27:01.485Z,1014.10
2022-10-10T02:28:03.669Z,1014.10
2022-10-10T02:29:02.037Z,1014.07
2022-10-10T02:30:04.205Z,1014.06
2022-10-10T02:31:02.572Z,1014.07
2022-10-10T02:32:02.853Z,1014.06
2022-10-10T02:33:05.012Z,1014.07
2022-10-10T02:34:05.206Z,1014.04
2022-10-10T02:35:05.380Z,1014.03
2022-10-10T02:36:03.997Z,1014.04
2022-10-10T02:37:04.278Z,1014.04
2022-10-10T02:38:06.455Z,1014.01
2022-10-10T02:39:04.811Z,1014.04
2022-10-10T02:40:06.999Z,1013.98
2022-10-10T02:41:07.178Z,1013.97
2022-10-10T02:42:05.659Z,1013.97
2022-10-10T02:43:05.948Z,1013.93
2022-10-10T02:44:06.242Z,1013.92
2022-10-10T02:45:06.529Z,1013.87
2022-10-10T02:46:08.697Z,1013.94
2022-10-10T02:47:07.051Z,1013.98
2022-10-10T02:48:09.260Z,1013.93
2022-10-10T02:49:09.423Z,1013.94
2022-10-10T02:50:07.905Z,1013.92
2022-10-10T02:51:10.089Z,1013.93
2022-10-10T02:52:08.452Z,1013.88
2022-10-10T02:53:10.626Z,1013.86
2022-10-10T02:54:08.988Z,1013.86
2022-10-10T02:55:09.263Z,1013.86
2022-10-10T02:56:09.545Z,1013.81
2022-10-10T02:57:09.849Z,1013.79
2022-10-10T02:58:10.140Z,1013.82
2022-10-10T02:59:10.411Z,1013.83
2022-10-10T03:00:10.691Z,1013.78
2022-10-10T03:01:11.006Z,1013.77
2022-10-10T03:02:13.159Z,1013.79
2022-10-10T03:03:14.799Z,1013.77
2022-10-10T03:04:11.814Z,1013.76
2022-10-10T03:05:12.089Z,1013.75
2022-10-10T03:06:14.282Z,1013.71
2022-10-10T03:07:14.448Z,1013.76
2022-10-10T03:08:15.593Z,1013.71
2022-10-10T03:09:15.771Z,1013.70
2022-10-10T03:10:13.517Z,1013.65
2022-10-10T03:11:15.719Z,1013.64
2022-10-10T03:12:15.888Z,1013.65
2022-10-10T03:13:14.372Z,1013.65
2022-10-10T03:14:14.664Z,1013.62
2022-10-10T03:15:14.941Z,1013.64
2022-10-10T03:16:17.119Z,1013.64
2022-10-10T03:17:15.471Z,1013.64
2022-10-10T03:18:17.661Z,1013.64
2022-10-10T03:19:16.005Z,1013.62
2022-10-10T03:20:19.642Z,1013.60
2022-10-10T03:21:19.321Z,1013.58
2022-10-10T03:22:16.847Z,1013.57
2022-10-10T03:23:19.962Z,1013.51
2022-10-10T03:24:18.469Z,1013.54
2022-10-10T03:25:18.628Z,1013.56
2022-10-10T03:26:18.943Z,1013.51
2022-10-10T03:27:19.212Z,1013.54
2022-10-10T03:28:20.474Z,1013.57
2022-10-10T03:29:18.838Z,1013.56
2022-10-10T03:30:19.940Z,1013.57
2022-10-10T03:31:21.292Z,1013.55
2022-10-10T03:32:21.783Z,1013.49
2022-10-10T03:33:21.461Z,1013.52
2022-10-10T03:34:22.142Z,1013.46
2022-10-10T03:35:21.507Z,1013.45
2022-10-10T03:36:21.669Z,1013.48
2022-10-10T03:37:22.925Z,1013.42
2022-10-10T03:38:23.110Z,1013.44
2022-10-10T03:39:23.291Z,1013.44
2022-10-10T03:40:23.458Z,1013.47
2022-10-10T03:41:24.120Z,1013.38
2022-10-10T03:42:23.404Z,1013.33
2022-10-10T03:43:25.425Z,1013.31
2022-10-10T03:44:24.604Z,1013.32
2022-10-10T03:45:23.340Z,1013.30
2022-10-10T03:46:23.626Z,1013.28
2022-10-10T03:47:23.930Z,1013.30
2022-10-10T03:48:24.211Z,1013.25
2022-10-10T03:49:25.394Z,1013.24
2022-10-10T03:50:24.739Z,1013.26
2022-10-10T03:51:26.908Z,1013.28
2022-10-10T03:52:27.113Z,1013.20
2022-10-10T03:53:27.248Z,1013.24
2022-10-10T03:54:27.434Z,1013.18
2022-10-10T03:55:28.081Z,1013.18
2022-10-10T03:56:28.259Z,1013.16
2022-10-10T03:57:28.434Z,1013.18
2022-10-10T03:58:27.063Z,1013.14
2022-10-10T03:59:29.242Z,1013.12
2022-10-10T04:00:27.608Z,1013.15
2022-10-10T04:01:27.909Z,1013.12
2022-10-10T04:02:28.168Z,1012.99
2022-10-10T04:03:28.445Z,1013.05
2022-10-10T04:04:30.637Z,1013.07
2022-10-10T04:05:28.989Z,1013.05
2022-10-10T04:06:29.272Z,1013.08
2022-10-10T04:07:31.453Z,1013.09
2022-10-10T04:08:31.646Z,1013.07
2022-10-10T04:09:31.822Z,1013.03
2022-10-10T04:10:32.011Z,1013.01
2022-10-10T04:11:32.661Z,1013.01
2022-10-10T04:12:32.837Z,1013.00
2022-10-10T04:13:31.323Z,1012.97
2022-10-10T04:14:33.500Z,1012.96
2022-10-10T04:15:33.656Z,1012.98
2022-10-10T04:16:33.814Z,1012.94
2022-10-10T04:17:33.974Z,1012.92
2022-10-10T04:18:32.703Z,1012.90
2022-10-10T04:19:34.874Z,1012.96
2022-10-10T04:20:33.245Z,1012.95
2022-10-10T04:21:35.411Z,1012.93
2022-10-10T04:22:33.787Z,1012.93
2022-10-10T04:23:34.068Z,1012.93
2022-10-10T04:24:34.360Z,1012.90
2022-10-10T04:25:34.638Z,1012.87
2022-10-10T04:26:36.819Z,1012.91
2022-10-10T04:27:35.177Z,1012.92
2022-10-10T04:28:35.477Z,1012.90
2022-10-10T04:29:35.759Z,1012.88
2022-10-10T04:30:37.944Z,1012.84
2022-10-10T04:31:36.293Z,1012.86
2022-10-10T04:32:36.569Z,1012.88
2022-10-10T04:33:36.848Z,1012.86
2022-10-10T04:34:37.204Z,1012.89
2022-10-10T04:35:40.311Z,1012.89
2022-10-10T04:36:37.686Z,1012.86
2022-10-10T04:37:37.961Z,1012.87
2022-10-10T04:38:38.228Z,1012.88
2022-10-10T04:39:40.406Z,1012.87
2022-10-10T04:40:40.592Z,1012.84
2022-10-10T04:41:39.123Z,1012.84
2022-10-10T04:42:41.312Z,1012.75
2022-10-10T04:43:39.668Z,1012.77
2022-10-10T04:44:41.852Z,1012.78
2022-10-10T04:45:40.223Z,1012.76
2022-10-10T04:46:40.511Z,1012.75
2022-10-10T04:47:40.795Z,1012.74
2022-10-10T04:48:42.970Z,1012.67
2022-10-10T04:49:43.125Z,1012.76
2022-10-10T04:50:41.609Z,1012.77
2022-10-10T04:51:41.885Z,1012.73
2022-10-10T04:52:42.173Z,1012.77
2022-10-10T04:53:44.855Z,1012.75
2022-10-10T04:54:43.773Z,1012.73
2022-10-10T04:55:42.997Z,1012.71
2022-10-10T04:56:43.279Z,1012.73
2022-10-10T04:57:43.570Z,1012.69
2022-10-10T04:58:45.748Z,1012.72
2022-10-10T04:59:45.906Z,1012.72
2022-10-10T05:00:44.388Z,1012.69
2022-10-10T05:01:47.321Z,1012.72
2022-10-10T05:02:44.940Z,1012.72
2022-10-10T05:03:45.224Z,1012.74
2022-10-10T05:04:47.400Z,1012.72
2022-10-10T05:05:45.779Z,1012.67
2022-10-10T05:06:46.084Z,1012.68
2022-10-10T05:07:46.373Z,1012.68
2022-10-10T05:08:46.653Z,1012.73
2022-10-10T05:09:48.835Z,1012.67
2022-10-10T05:10:47.193Z,1012.68
2022-10-10T05:11:47.500Z,1012.62
2022-10-10T05:12:48.052Z,1012.66
2022-10-10T05:13:48.063Z,1012.59
2022-10-10T05:14:50.241Z,1012.58
2022-10-10T05:15:48.600Z,1012.60
2022-10-10T05:16:50.780Z,1012.62
2022-10-10T05:17:49.159Z,1012.57
2022-10-10T05:18:49.454Z,1012.58
2022-10-10T05:19:52.585Z,1012.55
2022-10-10T05:20:50.088Z,1012.54
2022-10-10T05:21:51.270Z,1012.57
2022-10-10T05:22:54.202Z,1012.55
2022-10-10T05:23:53.834Z,1012.48
2022-10-10T05:24:52.261Z,1012.44
2022-10-10T05:25:52.421Z,1012.52
2022-10-10T05:26:52.586Z,1012.48
2022-10-10T05:27:53.957Z,1012.43
2022-10-10T05:28:53.176Z,1012.42
2022-10-10T05:29:52.693Z,1012.43
2022-10-10T05:30:54.870Z,1012.38
2022-10-10T05:31:53.135Z,1012.38
2022-10-10T05:32:53.871Z,1012.32
2022-10-10T05:33:55.647Z,1012.36
2022-10-10T05:34:54.027Z,1012.34
2022-10-10T05:35:54.342Z,1012.31
2022-10-10T05:36:55.466Z,1012.31
2022-10-10T05:37:56.835Z,1012.31
2022-10-10T05:38:57.011Z,1012.29
2022-10-10T05:39:57.218Z,1012.28
2022-10-10T05:40:56.814Z,1012.24
2022-10-10T05:41:57.035Z,1012.24
2022-10-10T05:42:57.343Z,1012.24
2022-10-10T05:43:58.577Z,1012.25
2022-10-10T05:44:58.901Z,1012.28
2022-10-10T05:45:59.075Z,1012.23
2022-10-10T05:46:59.247Z,1012.27
2022-10-10T05:47:57.883Z,1012.22
2022-10-10T05:49:00.064Z,1012.25
2022-10-10T05:50:00.260Z,1012.14
2022-10-10T05:51:00.470Z,1012.23
2022-10-10T05:51:59.097Z,1012.20
2022-10-10T05:52:59.410Z,1012.21
2022-10-10T05:54:01.628Z,1012.17
2022-10-10T05:55:00.022Z,1012.20
2022-10-10T05:56:00.346Z,1012.19
2022-10-10T05:57:00.673Z,1012.13
2022-10-10T05:58:02.876Z,1012.10
2022-10-10T05:59:03.056Z,1012.09
2022-10-10T06:00:03.246Z,1012.03
2022-10-10T06:01:03.414Z,1012.05
2022-10-10T06:02:04.153Z,1012.07
2022-10-10T06:03:04.287Z,1012.05
2022-10-10T06:04:04.478Z,1012.04
2022-10-10T06:05:04.628Z,1012.05
2022-10-10T06:06:07.005Z,1012.07
2022-10-10T06:07:03.709Z,1011.99
2022-10-10T06:08:11.516Z,1012.03
2022-10-10T06:09:05.318Z,1011.95
2022-10-10T06:10:04.577Z,1011.97
2022-10-10T06:11:04.905Z,1011.95
2022-10-10T06:12:05.237Z,1011.98
2022-10-10T06:13:05.556Z,1012.00
2022-10-10T06:14:07.730Z,1012.00
2022-10-10T06:15:07.910Z,1011.99
2022-10-10T06:16:08.090Z,1012.04
2022-10-10T06:17:06.727Z,1011.97
2022-10-10T06:18:08.893Z,1012.01
2022-10-10T06:19:13.938Z,1012.04
2022-10-10T06:20:10.232Z,1012.06
2022-10-10T06:21:09.406Z,1012.02
2022-10-10T06:22:08.179Z,1012.08
2022-10-10T06:23:10.318Z,1012.07
2022-10-10T06:24:08.835Z,1012.09
2022-10-10T06:25:23.908Z,1012.05
2022-10-10T06:26:12.443Z,1012.05
2022-10-10T06:27:09.729Z,1012.04
2022-10-10T06:28:10.094Z,1012.02
2022-10-10T06:29:10.276Z,1012.00
2022-10-10T06:30:10.606Z,1011.98
2022-10-10T06:31:12.788Z,1011.97
2022-10-10T06:32:12.948Z,1011.95
2022-10-10T06:33:13.142Z,1011.95
2022-10-10T06:34:14.763Z,1011.98
2022-10-10T06:35:12.051Z,1011.93
2022-10-10T06:36:14.234Z,1011.93
2022-10-10T06:37:12.634Z,1011.90
2022-10-10T06:38:14.814Z,1011.91
2022-10-10T06:39:13.219Z,1011.89
2022-10-10T06:40:15.427Z,1011.88
2022-10-10T06:41:15.628Z,1011.88
2022-10-10T06:42:14.172Z,1011.84
2022-10-10T06:43:16.329Z,1011.87
2022-10-10T06:44:14.730Z,1011.83
2022-10-10T06:45:15.051Z,1011.82
2022-10-10T06:46:17.230Z,1011.81
2022-10-10T06:47:15.747Z,1011.85
2022-10-10T06:48:16.252Z,1011.86
2022-10-10T06:49:16.251Z,1011.91
2022-10-10T06:50:18.441Z,1011.86
2022-10-10T06:51:18.614Z,1011.94
2022-10-10T06:52:17.136Z,1011.92
2022-10-10T06:53:17.457Z,1011.89
2022-10-10T06:54:17.803Z,1011.87
2022-10-10T06:55:18.128Z,1011.92
2022-10-10T06:56:23.514Z,1011.89
2022-10-10T06:57:21.458Z,1011.91
2022-10-10T06:58:18.990Z,1011.85
2022-10-10T06:59:19.320Z,1011.84
2022-10-10T07:00:19.641Z,1011.80
2022-10-10T07:01:21.852Z,1011.85
2022-10-10T07:02:20.219Z,1011.76
2022-10-10T07:03:20.540Z,1011.81
2022-10-10T07:04:20.863Z,1011.81
2022-10-10T07:05:21.184Z,1011.80
2022-10-10T07:06:23.360Z,1011.78
2022-10-10T07:07:21.753Z,1011.79
2022-10-10T07:08:22.073Z,1011.81
2022-10-10T07:09:22.554Z,1011.84
2022-10-10T07:10:22.699Z,1011.82
2022-10-10T07:11:25.850Z,1011.74
2022-10-10T07:12:29.097Z,1011.75
2022-10-10T07:13:26.195Z,1011.74
2022-10-10T07:14:24.809Z,1011.73
2022-10-10T07:15:25.219Z,1011.73
2022-10-10T07:16:24.550Z,1011.68
2022-10-10T07:17:26.709Z,1011.63
2022-10-10T07:18:25.936Z,1011.61
2022-10-10T07:19:26.124Z,1011.68
2022-10-10T07:20:27.494Z,1011.67
2022-10-10T07:21:27.685Z,1011.63
2022-10-10T07:22:27.115Z,1011.64
2022-10-10T07:23:27.445Z,1011.66
2022-10-10T07:24:26.842Z,1011.58
2022-10-10T07:25:29.984Z,1011.61
2022-10-10T07:26:29.201Z,1011.65
2022-10-10T07:27:29.365Z,1011.66
2022-10-10T07:28:29.126Z,1011.68
2022-10-10T07:29:30.325Z,1011.66
2022-10-10T07:30:28.723Z,1011.66
2022-10-10T07:31:30.890Z,1011.66
2022-10-10T07:32:30.247Z,1011.65
2022-10-10T07:33:30.597Z,1011.67
2022-10-10T07:34:31.889Z,1011.79
2022-10-10T07:35:30.299Z,1011.68
2022-10-10T07:36:32.486Z,1011.71
2022-10-10T07:37:30.887Z,1011.65
2022-10-10T07:38:31.210Z,1011.65
2022-10-10T07:39:33.398Z,1011.68
2022-10-10T07:40:31.804Z,1011.63
2022-10-10T07:41:32.112Z,1011.61
2022-10-10T07:42:32.446Z,1011.55
2022-10-10T07:43:32.772Z,1011.61
2022-10-10T07:44:35.032Z,1011.55
2022-10-10T07:45:33.393Z,1011.61
2022-10-10T07:46:33.724Z,1011.59
2022-10-10T07:47:34.042Z,1011.54
2022-10-10T07:48:34.391Z,1011.53
2022-10-10T07:49:36.558Z,1011.50
2022-10-10T07:50:34.962Z,1011.47
2022-10-10T07:51:37.161Z,1011.44
2022-10-10T07:52:36.337Z,1011.34
2022-10-10T07:53:37.511Z,1011.37
2022-10-10T07:54:37.700Z,1011.37
2022-10-10T07:55:38.374Z,1011.40
2022-10-10T07:56:38.565Z,1011.36
2022-10-10T07:57:38.749Z,1011.34
2022-10-10T07:58:38.924Z,1011.36
2022-10-10T07:59:37.699Z,1011.39
2022-10-10T08:00:39.900Z,1011.37
2022-10-10T08:01:40.133Z,1011.36
2022-10-10T08:02:40.281Z,1011.36
2022-10-10T08:03:40.461Z,1011.38
2022-10-10T08:04:39.240Z,1011.38
2022-10-10T08:05:41.423Z,1011.30
2022-10-10T08:06:39.829Z,1011.30
2022-10-10T08:07:42.007Z,1011.34
2022-10-10T08:08:50.471Z,1011.31
2022-10-10T08:09:41.743Z,1011.36
2022-10-10T08:10:41.009Z,1011.30
2022-10-10T08:11:43.203Z,1011.28
2022-10-10T08:12:41.619Z,1011.36
2022-10-10T08:13:43.787Z,1011.32
2022-10-10T08:14:42.078Z,1011.33
2022-10-10T08:15:42.431Z,1011.25
2022-10-10T08:16:44.599Z,1011.28
2022-10-10T08:17:44.780Z,1011.24
2022-10-10T08:18:44.964Z,1011.18
2022-10-10T08:19:43.623Z,1011.19
2022-10-10T08:20:46.776Z,1011.25
2022-10-10T08:21:44.196Z,1011.16
2022-10-10T08:22:45.879Z,1011.18
2022-10-10T08:23:46.562Z,1011.15
2022-10-10T08:24:45.097Z,1011.23
2022-10-10T08:25:45.436Z,1011.20
2022-10-10T08:26:45.793Z,1011.22
2022-10-10T08:27:46.009Z,1011.21
2022-10-10T08:28:48.239Z,1011.23
2022-10-10T08:29:46.633Z,1011.19
2022-10-10T08:30:46.969Z,1011.22
2022-10-10T08:31:47.311Z,1011.21
2022-10-10T08:32:47.704Z,1011.14
2022-10-10T08:33:49.818Z,1011.22
2022-10-10T08:34:48.232Z,1011.13
2022-10-10T08:35:48.572Z,1011.12
2022-10-10T08:36:48.923Z,1011.12
2022-10-10T08:37:49.150Z,1011.16
2022-10-10T08:38:51.334Z,1011.05
2022-10-10T08:39:49.619Z,1011.08
2022-10-10T08:40:49.966Z,1011.01
2022-10-10T08:41:50.306Z,1011.03
2022-10-10T08:42:53.185Z,1011.08
2022-10-10T08:43:50.900Z,1011.15
2022-10-10T08:44:51.259Z,1011.07
2022-10-10T08:45:52.445Z,1011.13
2022-10-10T08:46:51.752Z,1011.09
2022-10-10T08:47:51.978Z,1011.05
2022-10-10T08:48:54.143Z,1011.01
2022-10-10T08:49:52.431Z,1011.06
2022-10-10T08:50:52.803Z,1010.99
2022-10-10T08:51:53.020Z,1010.96
2022-10-10T08:52:53.912Z,1010.97
2022-10-10T08:53:55.539Z,1010.98
2022-10-10T08:54:58.270Z,1010.98
2022-10-10T08:55:54.273Z,1011.02
2022-10-10T08:56:54.573Z,1010.98
2022-10-10T08:57:54.777Z,1011.05
2022-10-10T08:58:56.954Z,1011.09
2022-10-10T08:59:57.140Z,1011.01
2022-10-10T09:00:55.892Z,1010.96
2022-10-10T09:02:17.893Z,1010.99
2022-10-10T09:02:57.369Z,1011.01
2022-10-10T09:03:58.143Z,1011.00
2022-10-10T09:04:57.773Z,1011.03
2022-10-10T09:06:00.473Z,1010.99
2022-10-10T09:07:00.662Z,1010.93
2022-10-10T09:07:59.398Z,1010.99
2022-10-10T09:08:59.586Z,1010.95
2022-10-10T09:09:59.243Z,1010.92
2022-10-10T09:11:00.756Z,1010.90
2022-10-10T09:11:59.655Z,1010.94
2022-10-10T09:13:00.999Z,1010.96
2022-10-10T09:14:00.230Z,1010.92
2022-10-10T09:15:02.351Z,1010.85
2022-10-10T09:16:01.816Z,1010.84
2022-10-10T09:17:00.980Z,1011.00
2022-10-10T09:18:02.448Z,1010.93
2022-10-10T09:19:00.617Z,1010.84
2022-10-10T09:20:00.958Z,1010.84
2022-10-10T09:21:01.222Z,1010.83
2022-10-10T09:22:01.445Z,1010.78
2022-10-10T09:23:03.620Z,1010.84
2022-10-10T09:24:02.033Z,1010.74
2022-10-10T09:25:02.256Z,1010.65
2022-10-10T09:26:08.823Z,1010.82
2022-10-10T09:27:04.861Z,1010.64
2022-10-10T09:28:04.128Z,1010.69
2022-10-10T09:29:05.334Z,1010.66
2022-10-10T09:30:04.591Z,1010.72
2022-10-10T09:31:06.903Z,1010.66
2022-10-10T09:32:04.330Z,1010.66
2022-10-10T09:33:06.502Z,1010.69
2022-10-10T09:34:04.793Z,1010.71
2022-10-10T09:35:05.024Z,1010.74
2022-10-10T09:36:07.209Z,1010.72
2022-10-10T09:37:05.503Z,1010.75
2022-10-10T09:38:06.694Z,1010.78
2022-10-10T09:39:05.978Z,1010.76
2022-10-10T09:40:06.207Z,1010.78
2022-10-10T09:41:06.446Z,1010.78
2022-10-10T09:42:08.599Z,1010.72
2022-10-10T09:43:10.755Z,1010.77
2022-10-10T09:44:08.966Z,1010.75
2022-10-10T09:45:09.641Z,1010.82
2022-10-10T09:46:09.415Z,1010.77
2022-10-10T09:47:10.138Z,1010.76
2022-10-10T09:48:08.438Z,1010.65
2022-10-10T09:49:08.662Z,1010.67
2022-10-10T09:50:09.008Z,1010.67
2022-10-10T09:51:10.247Z,1010.71
2022-10-10T09:52:11.443Z,1010.65
2022-10-10T09:53:09.852Z,1010.67
2022-10-10T09:54:10.206Z,1010.66
2022-10-10T09:55:10.426Z,1010.71
2022-10-10T09:56:11.815Z,1010.69
2022-10-10T09:57:14.454Z,1010.69
2022-10-10T09:58:13.172Z,1010.73
2022-10-10T09:59:13.329Z,1010.73
2022-10-10T10:00:13.491Z,1010.71
2022-10-10T10:01:15.721Z,1010.68
2022-10-10T10:02:12.510Z,1010.67
2022-10-10T10:03:14.702Z,1010.74
2022-10-10T10:04:30.177Z,1010.68
2022-10-10T10:05:14.330Z,1010.71
2022-10-10T10:06:15.559Z,1010.76
2022-10-10T10:07:15.731Z,1010.77
2022-10-10T10:08:14.154Z,1010.77
2022-10-10T10:09:16.197Z,1010.72
2022-10-10T10:10:16.674Z,1010.79
2022-10-10T10:11:16.755Z,1010.77
2022-10-10T10:12:15.173Z,1010.78
2022-10-10T10:13:17.343Z,1010.80
2022-10-10T10:14:15.703Z,1010.80
2022-10-10T10:15:19.329Z,1010.78
2022-10-10T10:16:18.061Z,1010.75
2022-10-10T10:17:18.216Z,1010.75
2022-10-10T10:18:16.886Z,1010.81
2022-10-10T10:19:20.558Z,1010.80
2022-10-10T10:20:17.369Z,1010.78
2022-10-10T10:21:17.705Z,1010.81
2022-10-10T10:22:23.202Z,1010.84
2022-10-10T10:23:19.313Z,1010.82
2022-10-10T10:24:19.570Z,1010.76
2022-10-10T10:25:18.856Z,1010.80
2022-10-10T10:26:19.076Z,1010.75
2022-10-10T10:27:19.419Z,1010.81
2022-10-10T10:28:21.638Z,1010.78
2022-10-10T10:29:20.125Z,1010.81
2022-10-10T10:30:20.348Z,1010.79
2022-10-10T10:31:20.574Z,1010.76
2022-10-10T10:32:22.762Z,1010.73
2022-10-10T10:33:21.050Z,1010.79
2022-10-10T10:34:23.289Z,1010.67
2022-10-10T10:35:23.426Z,1010.68
2022-10-10T10:36:22.826Z,1010.62
2022-10-10T10:37:22.225Z,1010.66
2022-10-10T10:38:22.584Z,1010.69
2022-10-10T10:39:22.814Z,1010.58
2022-10-10T10:40:24.983Z,1010.79
2022-10-10T10:41:23.277Z,1010.76
2022-10-10T10:42:23.507Z,1010.60
2022-10-10T10:43:23.731Z,1010.61
2022-10-10T10:44:24.868Z,1010.49
2022-10-10T10:45:26.201Z,1010.55
2022-10-10T10:46:24.659Z,1010.55
2022-10-10T10:47:24.918Z,1010.69
2022-10-10T10:48:25.234Z,1010.61
2022-10-10T10:49:28.894Z,1010.65
2022-10-10T10:50:25.705Z,1010.64
2022-10-10T10:51:27.882Z,1010.52
2022-10-10T10:52:26.304Z,1010.56
2022-10-10T10:53:26.536Z,1010.51
2022-10-10T10:54:29.687Z,1010.58
2022-10-10T10:55:27.116Z,1010.50
2022-10-10T10:56:29.350Z,1010.59
2022-10-10T10:57:36.567Z,1010.57
2022-10-10T11:00:17.216Z,1010.51
2022-10-10T11:01:55.266Z,1010.45
2022-10-10T11:02:51.060Z,1010.59
2022-10-10T11:05:22.169Z,1010.56
2022-10-10T11:05:24.294Z,1010.52
2022-10-10T11:05:39.605Z,1010.55
2022-10-10T11:06:34.257Z,1010.46
2022-10-10T11:07:32.413Z,1010.47
2022-10-10T11:08:30.837Z,1010.44
2022-10-10T11:09:49.158Z,1010.42
2022-10-10T11:10:34.300Z,1010.54
2022-10-10T11:11:34.429Z,1010.57
2022-10-10T11:12:31.866Z,1010.56
2022-10-10T11:13:33.181Z,1010.49
2022-10-10T11:14:35.269Z,1010.50
2022-10-10T11:16:04.857Z,1010.50
2022-10-10T11:16:47.923Z,1010.50
2022-10-10T11:17:37.121Z,1010.52
2022-10-10T11:18:33.437Z,1010.53
2022-10-10T11:19:34.568Z,1010.54
2022-10-10T11:20:33.994Z,1010.46
2022-10-10T11:21:37.124Z,1010.46
2022-10-10T11:22:34.554Z,1010.47
2022-10-10T11:23:37.693Z,1010.56
2022-10-10T11:24:35.183Z,1010.47
2022-10-10T11:25:35.400Z,1010.54
2022-10-10T11:26:39.034Z,1010.54
2022-10-10T11:27:36.884Z,1010.54
2022-10-10T11:28:37.334Z,1010.56
2022-10-10T11:29:37.575Z,1010.54
2022-10-10T11:30:37.808Z,1010.56
2022-10-10T11:31:39.030Z,1010.31
2022-10-10T11:32:39.212Z,1010.49
2022-10-10T11:33:38.577Z,1010.48
2022-10-10T11:34:38.762Z,1010.41
2022-10-10T11:35:38.176Z,1010.37
2022-10-10T11:36:40.351Z,1010.59
2022-10-10T11:37:40.534Z,1010.51
2022-10-10T11:38:38.954Z,1010.41
2022-10-10T11:39:39.291Z,1010.46
2022-10-10T11:40:39.636Z,1010.40
2022-10-10T11:41:40.827Z,1010.47
2022-10-10T11:42:41.979Z,1010.39
2022-10-10T11:43:42.132Z,1010.42
2022-10-10T11:44:41.640Z,1010.39
2022-10-10T11:45:42.976Z,1010.37
2022-10-10T11:46:43.903Z,1010.43
2022-10-10T11:47:41.575Z,1010.45
2022-10-10T11:48:41.807Z,1010.44
2022-10-10T11:49:43.998Z,1010.42
2022-10-10T11:50:42.289Z,1010.46
2022-10-10T11:51:42.513Z,1010.49
2022-10-10T11:52:42.860Z,1010.47
2022-10-10T11:53:43.087Z,1010.37
2022-10-10T11:54:45.186Z,1010.38
2022-10-10T11:55:43.602Z,1010.45
2022-10-10T11:56:43.947Z,1010.52
2022-10-10T11:57:44.295Z,1010.46
2022-10-10T11:58:44.538Z,1010.44
2022-10-10T11:59:46.722Z,1010.41
2022-10-10T12:00:45.023Z,1010.38
2022-10-10T12:01:47.261Z,1010.42
2022-10-10T12:02:45.532Z,1010.36
2022-10-10T12:03:47.699Z,1010.32
2022-10-10T12:04:45.983Z,1010.32
2022-10-10T12:05:46.434Z,1010.30
2022-10-10T12:06:48.504Z,1010.37
2022-10-10T12:07:48.681Z,1010.32
2022-10-10T12:08:48.868Z,1010.25
2022-10-10T12:09:49.524Z,1010.28
2022-10-10T12:10:51.167Z,1010.31